sensor_id;sensor_type;location;lat;lon;timestamp;P1;durP1;ratioP1;P2;durP2;ratioP2
29210;SDS011;16250;49.932;10.980;2023-07-30T00:00:39;4.75;;;3.70;;
29210;SDS011;16250;49.932;10.980;2023-07-30T00:03:04;6.18;;;4.30;;
29210;SDS011;16250;49.932;10.980;2023-07-30T00:05:30;5.05;;;4.05;;
29210;SDS011;16250;49.932;10.980;2023-07-30T00:07:56;5.18;;;4.28;;
29210;SDS011;16250;49.932;10.980;2023-07-30T00:10:21;5.55;;;4.03;;
29210;SDS011;16250;49.932;10.980;2023-07-30T00:12:47;5.53;;;4.25;;
29210;SDS011;16250;49.932;10.980;2023-07-30T00:15:12;4.78;;;3.90;;
29210;SDS011;16250;49.932;10.980;2023-07-30T00:17:38;4.50;;;4.10;;
29210;SDS011;16250;49.932;10.980;2023-07-30T00:20:04;4.20;;;3.80;;
29210;SDS011;16250;49.932;10.980;2023-07-30T00:22:31;5.35;;;3.92;;
29210;SDS011;16250;49.932;10.980;2023-07-30T00:24:56;5.85;;;4.35;;
29210;SDS011;16250;49.932;10.980;2023-07-30T00:27:22;4.75;;;4.05;;
29210;SDS011;16250;49.932;10.980;2023-07-30T00:29:47;4.75;;;4.00;;
29210;SDS011;16250;49.932;10.980;2023-07-30T00:32:12;4.80;;;3.97;;
29210;SDS011;16250;49.932;10.980;2023-07-30T00:34:41;7.60;;;4.18;;
29210;SDS011;16250;49.932;10.980;2023-07-30T00:37:06;8.05;;;3.92;;
29210;SDS011;16250;49.932;10.980;2023-07-30T00:39:32;5.18;;;3.80;;
29210;SDS011;16250;49.932;10.980;2023-07-30T00:41:57;4.65;;;3.97;;
29210;SDS011;16250;49.932;10.980;2023-07-30T00:44:22;7.13;;;4.00;;
29210;SDS011;16250;49.932;10.980;2023-07-30T00:46:48;7.75;;;3.83;;
29210;SDS011;16250;49.932;10.980;2023-07-30T00:49:14;5.63;;;3.80;;
29210;SDS011;16250;49.932;10.980;2023-07-30T00:51:39;5.53;;;3.78;;
29210;SDS011;16250;49.932;10.980;2023-07-30T00:54:06;5.80;;;4.22;;
29210;SDS011;16250;49.932;10.980;2023-07-30T00:56:31;5.75;;;4.20;;
29210;SDS011;16250;49.932;10.980;2023-07-30T00:58:57;4.63;;;3.80;;
29210;SDS011;16250;49.932;10.980;2023-07-30T01:01:22;5.95;;;3.80;;
29210;SDS011;16250;49.932;10.980;2023-07-30T01:03:49;8.82;;;4.25;;
29210;SDS011;16250;49.932;10.980;2023-07-30T01:06:15;4.60;;;3.70;;
29210;SDS011;16250;49.932;10.980;2023-07-30T01:08:41;5.07;;;4.20;;
29210;SDS011;16250;49.932;10.980;2023-07-30T01:11:06;5.10;;;4.10;;
29210;SDS011;16250;49.932;10.980;2023-07-30T01:13:33;6.20;;;4.10;;
29210;SDS011;16250;49.932;10.980;2023-07-30T01:15:59;4.63;;;4.13;;
29210;SDS011;16250;49.932;10.980;2023-07-30T01:18:24;4.82;;;4.32;;
29210;SDS011;16250;49.932;10.980;2023-07-30T01:20:53;4.70;;;4.20;;
29210;SDS011;16250;49.932;10.980;2023-07-30T01:23:22;4.63;;;4.22;;
29210;SDS011;16250;49.932;10.980;2023-07-30T01:25:47;6.25;;;4.70;;
29210;SDS011;16250;49.932;10.980;2023-07-30T01:28:16;7.13;;;4.22;;
29210;SDS011;16250;49.932;10.980;2023-07-30T01:30:43;5.55;;;4.60;;
29210;SDS011;16250;49.932;10.980;2023-07-30T01:33:10;6.15;;;4.10;;
29210;SDS011;16250;49.932;10.980;2023-07-30T01:35:36;5.60;;;4.10;;
29210;SDS011;16250;49.932;10.980;2023-07-30T01:38:03;6.55;;;4.15;;
29210;SDS011;16250;49.932;10.980;2023-07-30T01:40:31;6.57;;;4.13;;
29210;SDS011;16250;49.932;10.980;2023-07-30T01:42:59;5.47;;;4.10;;
29210;SDS011;16250;49.932;10.980;2023-07-30T01:45:25;4.95;;;4.40;;
29210;SDS011;16250;49.932;10.980;2023-07-30T01:47:50;5.30;;;4.25;;
29210;SDS011;16250;49.932;10.980;2023-07-30T01:50:17;5.22;;;4.57;;
29210;SDS011;16250;49.932;10.980;2023-07-30T01:52:42;5.75;;;4.47;;
29210;SDS011;16250;49.932;10.980;2023-07-30T01:55:08;5.68;;;4.72;;
29210;SDS011;16250;49.932;10.980;2023-07-30T01:57:36;65.72;;;8.77;;
29210;SDS011;16250;49.932;10.980;2023-07-30T02:00:02;6.90;;;4.68;;
29210;SDS011;16250;49.932;10.980;2023-07-30T02:02:28;7.47;;;4.75;;
29210;SDS011;16250;49.932;10.980;2023-07-30T02:04:53;5.25;;;4.45;;
29210;SDS011;16250;49.932;10.980;2023-07-30T02:07:19;6.15;;;4.40;;
29210;SDS011;16250;49.932;10.980;2023-07-30T02:09:44;5.40;;;4.60;;
29210;SDS011;16250;49.932;10.980;2023-07-30T02:12:10;8.00;;;4.13;;
29210;SDS011;16250;49.932;10.980;2023-07-30T02:14:36;7.38;;;4.50;;
29210;SDS011;16250;49.932;10.980;2023-07-30T02:17:01;6.53;;;4.50;;
29210;SDS011;16250;49.932;10.980;2023-07-30T02:19:27;5.32;;;4.68;;
29210;SDS011;16250;49.932;10.980;2023-07-30T02:21:52;5.93;;;4.43;;
29210;SDS011;16250;49.932;10.980;2023-07-30T02:24:18;6.22;;;4.78;;
29210;SDS011;16250;49.932;10.980;2023-07-30T02:26:43;6.18;;;4.65;;
29210;SDS011;16250;49.932;10.980;2023-07-30T02:29:09;6.13;;;4.60;;
29210;SDS011;16250;49.932;10.980;2023-07-30T02:31:34;6.85;;;5.00;;
29210;SDS011;16250;49.932;10.980;2023-07-30T02:34:00;5.47;;;4.80;;
29210;SDS011;16250;49.932;10.980;2023-07-30T02:36:26;5.53;;;4.95;;
29210;SDS011;16250;49.932;10.980;2023-07-30T02:38:51;6.25;;;5.18;;
29210;SDS011;16250;49.932;10.980;2023-07-30T02:41:17;5.03;;;4.43;;
29210;SDS011;16250;49.932;10.980;2023-07-30T02:43:42;5.28;;;4.78;;
29210;SDS011;16250;49.932;10.980;2023-07-30T02:46:08;7.03;;;5.25;;
29210;SDS011;16250;49.932;10.980;2023-07-30T02:48:33;5.78;;;4.88;;
29210;SDS011;16250;49.932;10.980;2023-07-30T02:50:58;6.97;;;4.60;;
29210;SDS011;16250;49.932;10.980;2023-07-30T02:53:24;5.88;;;5.15;;
29210;SDS011;16250;49.932;10.980;2023-07-30T02:55:49;6.90;;;4.72;;
29210;SDS011;16250;49.932;10.980;2023-07-30T02:58:15;6.32;;;4.60;;
29210;SDS011;16250;49.932;10.980;2023-07-30T03:00:40;5.88;;;4.53;;
29210;SDS011;16250;49.932;10.980;2023-07-30T03:03:06;6.63;;;4.88;;
29210;SDS011;16250;49.932;10.980;2023-07-30T03:05:31;7.60;;;4.82;;
29210;SDS011;16250;49.932;10.980;2023-07-30T03:07:56;6.22;;;4.50;;
29210;SDS011;16250;49.932;10.980;2023-07-30T03:10:22;5.32;;;4.82;;
29210;SDS011;16250;49.932;10.980;2023-07-30T03:12:47;6.32;;;4.40;;
29210;SDS011;16250;49.932;10.980;2023-07-30T03:15:13;5.43;;;4.43;;
29210;SDS011;16250;49.932;10.980;2023-07-30T03:17:38;6.70;;;5.38;;
29210;SDS011;16250;49.932;10.980;2023-07-30T03:20:04;6.68;;;5.03;;
29210;SDS011;16250;49.932;10.980;2023-07-30T03:22:30;6.85;;;5.07;;
29210;SDS011;16250;49.932;10.980;2023-07-30T03:24:58;8.32;;;4.85;;
29210;SDS011;16250;49.932;10.980;2023-07-30T03:27:24;6.22;;;5.28;;
29210;SDS011;16250;49.932;10.980;2023-07-30T03:29:49;6.00;;;5.10;;
29210;SDS011;16250;49.932;10.980;2023-07-30T03:32:14;8.98;;;5.63;;
29210;SDS011;16250;49.932;10.980;2023-07-30T03:34:40;8.15;;;5.10;;
29210;SDS011;16250;49.932;10.980;2023-07-30T03:37:05;6.18;;;5.18;;
29210;SDS011;16250;49.932;10.980;2023-07-30T03:39:31;7.97;;;5.25;;
29210;SDS011;16250;49.932;10.980;2023-07-30T03:41:56;7.35;;;5.35;;
29210;SDS011;16250;49.932;10.980;2023-07-30T03:44:21;6.32;;;5.35;;
29210;SDS011;16250;49.932;10.980;2023-07-30T03:46:47;8.60;;;5.78;;
29210;SDS011;16250;49.932;10.980;2023-07-30T03:49:12;7.80;;;5.40;;
29210;SDS011;16250;49.932;10.980;2023-07-30T03:51:38;6.13;;;5.30;;
29210;SDS011;16250;49.932;10.980;2023-07-30T03:54:04;7.80;;;5.30;;
29210;SDS011;16250;49.932;10.980;2023-07-30T03:56:29;6.03;;;5.43;;
29210;SDS011;16250;49.932;10.980;2023-07-30T03:58:55;7.85;;;5.47;;
29210;SDS011;16250;49.932;10.980;2023-07-30T04:01:20;6.45;;;5.50;;
29210;SDS011;16250;49.932;10.980;2023-07-30T04:03:46;6.60;;;5.45;;
29210;SDS011;16250;49.932;10.980;2023-07-30T04:06:11;6.25;;;5.65;;
29210;SDS011;16250;49.932;10.980;2023-07-30T04:08:36;6.95;;;5.00;;
29210;SDS011;16250;49.932;10.980;2023-07-30T04:11:03;8.60;;;5.85;;
29210;SDS011;16250;49.932;10.980;2023-07-30T04:13:28;8.50;;;5.20;;
29210;SDS011;16250;49.932;10.980;2023-07-30T04:15:54;7.82;;;5.50;;
29210;SDS011;16250;49.932;10.980;2023-07-30T04:18:19;7.55;;;5.47;;
29210;SDS011;16250;49.932;10.980;2023-07-30T04:20:44;6.68;;;5.07;;
29210;SDS011;16250;49.932;10.980;2023-07-30T04:23:10;8.20;;;5.55;;
29210;SDS011;16250;49.932;10.980;2023-07-30T04:25:36;6.93;;;5.20;;
29210;SDS011;16250;49.932;10.980;2023-07-30T04:28:02;6.35;;;5.40;;
29210;SDS011;16250;49.932;10.980;2023-07-30T04:30:27;6.57;;;5.35;;
29210;SDS011;16250;49.932;10.980;2023-07-30T04:32:53;5.93;;;5.38;;
29210;SDS011;16250;49.932;10.980;2023-07-30T04:35:18;6.47;;;5.45;;
29210;SDS011;16250;49.932;10.980;2023-07-30T04:37:44;9.30;;;5.68;;
29210;SDS011;16250;49.932;10.980;2023-07-30T04:40:10;5.85;;;5.35;;
29210;SDS011;16250;49.932;10.980;2023-07-30T04:42:36;7.20;;;5.60;;
29210;SDS011;16250;49.932;10.980;2023-07-30T04:45:01;5.43;;;4.90;;
29210;SDS011;16250;49.932;10.980;2023-07-30T04:47:28;6.38;;;5.30;;
29210;SDS011;16250;49.932;10.980;2023-07-30T04:49:54;5.40;;;4.47;;
29210;SDS011;16250;49.932;10.980;2023-07-30T04:52:19;6.97;;;4.93;;
29210;SDS011;16250;49.932;10.980;2023-07-30T04:54:45;6.80;;;4.75;;
29210;SDS011;16250;49.932;10.980;2023-07-30T04:57:11;5.35;;;4.63;;
29210;SDS011;16250;49.932;10.980;2023-07-30T04:59:36;6.45;;;5.32;;
29210;SDS011;16250;49.932;10.980;2023-07-30T05:02:02;6.00;;;5.22;;
29210;SDS011;16250;49.932;10.980;2023-07-30T05:04:27;6.68;;;5.20;;
29210;SDS011;16250;49.932;10.980;2023-07-30T05:06:53;5.65;;;5.05;;
29210;SDS011;16250;49.932;10.980;2023-07-30T05:09:18;6.15;;;5.20;;
29210;SDS011;16250;49.932;10.980;2023-07-30T05:11:44;9.05;;;5.28;;
29210;SDS011;16250;49.932;10.980;2023-07-30T05:14:09;6.00;;;4.75;;
29210;SDS011;16250;49.932;10.980;2023-07-30T05:16:35;7.57;;;5.03;;
29210;SDS011;16250;49.932;10.980;2023-07-30T05:19:01;5.63;;;5.05;;
29210;SDS011;16250;49.932;10.980;2023-07-30T05:21:27;6.72;;;4.82;;
29210;SDS011;16250;49.932;10.980;2023-07-30T05:23:52;7.35;;;5.05;;
29210;SDS011;16250;49.932;10.980;2023-07-30T05:26:18;5.22;;;4.72;;
29210;SDS011;16250;49.932;10.980;2023-07-30T05:28:43;6.07;;;5.03;;
29210;SDS011;16250;49.932;10.980;2023-07-30T05:31:09;7.07;;;4.88;;
29210;SDS011;16250;49.932;10.980;2023-07-30T05:33:34;6.68;;;4.82;;
29210;SDS011;16250;49.932;10.980;2023-07-30T05:35:59;7.18;;;5.47;;
29210;SDS011;16250;49.932;10.980;2023-07-30T05:38:25;5.63;;;5.13;;
29210;SDS011;16250;49.932;10.980;2023-07-30T05:40:50;10.18;;;5.10;;
29210;SDS011;16250;49.932;10.980;2023-07-30T05:43:16;6.40;;;5.18;;
29210;SDS011;16250;49.932;10.980;2023-07-30T05:45:41;8.60;;;4.97;;
29210;SDS011;16250;49.932;10.980;2023-07-30T05:48:06;5.78;;;5.18;;
29210;SDS011;16250;49.932;10.980;2023-07-30T05:50:32;8.27;;;5.07;;
29210;SDS011;16250;49.932;10.980;2023-07-30T05:52:57;5.50;;;5.00;;
29210;SDS011;16250;49.932;10.980;2023-07-30T05:55:23;6.28;;;5.13;;
29210;SDS011;16250;49.932;10.980;2023-07-30T05:57:48;6.72;;;5.18;;
29210;SDS011;16250;49.932;10.980;2023-07-30T06:00:13;7.75;;;4.95;;
29210;SDS011;16250;49.932;10.980;2023-07-30T06:02:39;5.63;;;5.00;;
29210;SDS011;16250;49.932;10.980;2023-07-30T06:05:04;5.15;;;4.65;;
29210;SDS011;16250;49.932;10.980;2023-07-30T06:07:30;6.30;;;4.75;;
29210;SDS011;16250;49.932;10.980;2023-07-30T06:09:55;5.53;;;4.85;;
29210;SDS011;16250;49.932;10.980;2023-07-30T06:12:21;4.57;;;3.97;;
29210;SDS011;16250;49.932;10.980;2023-07-30T06:14:46;4.95;;;4.30;;
29210;SDS011;16250;49.932;10.980;2023-07-30T06:17:11;6.15;;;4.40;;
29210;SDS011;16250;49.932;10.980;2023-07-30T06:19:37;5.43;;;4.22;;
29210;SDS011;16250;49.932;10.980;2023-07-30T06:22:03;6.68;;;4.55;;
29210;SDS011;16250;49.932;10.980;2023-07-30T06:24:28;4.70;;;4.30;;
29210;SDS011;16250;49.932;10.980;2023-07-30T06:26:54;5.35;;;4.65;;
29210;SDS011;16250;49.932;10.980;2023-07-30T06:29:19;4.55;;;4.15;;
29210;SDS011;16250;49.932;10.980;2023-07-30T06:31:45;6.00;;;4.75;;
29210;SDS011;16250;49.932;10.980;2023-07-30T06:34:10;6.47;;;4.20;;
29210;SDS011;16250;49.932;10.980;2023-07-30T06:36:35;4.75;;;4.35;;
29210;SDS011;16250;49.932;10.980;2023-07-30T06:39:01;4.80;;;4.32;;
29210;SDS011;16250;49.932;10.980;2023-07-30T06:41:26;6.43;;;5.00;;
29210;SDS011;16250;49.932;10.980;2023-07-30T06:43:52;5.43;;;4.85;;
29210;SDS011;16250;49.932;10.980;2023-07-30T06:46:17;9.38;;;4.70;;
29210;SDS011;16250;49.932;10.980;2023-07-30T06:48:42;5.72;;;4.57;;
29210;SDS011;16250;49.932;10.980;2023-07-30T06:51:09;5.18;;;4.65;;
29210;SDS011;16250;49.932;10.980;2023-07-30T06:53:34;4.82;;;4.30;;
29210;SDS011;16250;49.932;10.980;2023-07-30T06:56:00;4.90;;;4.40;;
29210;SDS011;16250;49.932;10.980;2023-07-30T06:58:25;6.75;;;4.78;;
29210;SDS011;16250;49.932;10.980;2023-07-30T07:00:50;5.80;;;4.35;;
29210;SDS011;16250;49.932;10.980;2023-07-30T07:03:16;6.85;;;4.30;;
29210;SDS011;16250;49.932;10.980;2023-07-30T07:05:42;5.38;;;4.60;;
29210;SDS011;16250;49.932;10.980;2023-07-30T07:08:07;4.90;;;4.45;;
29210;SDS011;16250;49.932;10.980;2023-07-30T07:10:33;4.85;;;3.83;;
29210;SDS011;16250;49.932;10.980;2023-07-30T07:12:58;5.43;;;4.40;;
29210;SDS011;16250;49.932;10.980;2023-07-30T07:15:23;4.78;;;4.20;;
29210;SDS011;16250;49.932;10.980;2023-07-30T07:17:49;3.97;;;3.67;;
29210;SDS011;16250;49.932;10.980;2023-07-30T07:20:14;8.82;;;4.05;;
29210;SDS011;16250;49.932;10.980;2023-07-30T07:22:39;5.47;;;4.03;;
29210;SDS011;16250;49.932;10.980;2023-07-30T07:25:05;4.47;;;3.80;;
29210;SDS011;16250;49.932;10.980;2023-07-30T07:27:30;5.32;;;4.00;;
29210;SDS011;16250;49.932;10.980;2023-07-30T07:29:56;3.88;;;3.58;;
29210;SDS011;16250;49.932;10.980;2023-07-30T07:32:21;4.43;;;3.97;;
29210;SDS011;16250;49.932;10.980;2023-07-30T07:34:50;4.68;;;4.07;;
29210;SDS011;16250;49.932;10.980;2023-07-30T07:37:15;4.82;;;3.55;;
29210;SDS011;16250;49.932;10.980;2023-07-30T07:39:42;4.63;;;3.78;;
29210;SDS011;16250;49.932;10.980;2023-07-30T07:42:08;9.02;;;4.00;;
29210;SDS011;16250;49.932;10.980;2023-07-30T07:44:34;3.72;;;3.35;;
29210;SDS011;16250;49.932;10.980;2023-07-30T07:46:59;3.90;;;3.25;;
29210;SDS011;16250;49.932;10.980;2023-07-30T07:49:24;3.88;;;3.30;;
29210;SDS011;16250;49.932;10.980;2023-07-30T07:51:50;3.42;;;3.13;;
29210;SDS011;16250;49.932;10.980;2023-07-30T07:54:15;5.78;;;3.10;;
29210;SDS011;16250;49.932;10.980;2023-07-30T07:56:41;4.53;;;3.08;;
29210;SDS011;16250;49.932;10.980;2023-07-30T07:59:06;4.45;;;2.90;;
29210;SDS011;16250;49.932;10.980;2023-07-30T08:01:32;5.43;;;3.00;;
29210;SDS011;16250;49.932;10.980;2023-07-30T08:03:57;4.20;;;2.80;;
29210;SDS011;16250;49.932;10.980;2023-07-30T08:06:23;3.80;;;2.70;;
29210;SDS011;16250;49.932;10.980;2023-07-30T08:08:49;3.15;;;2.15;;
29210;SDS011;16250;49.932;10.980;2023-07-30T08:11:14;2.65;;;2.45;;
29210;SDS011;16250;49.932;10.980;2023-07-30T08:13:39;2.60;;;2.40;;
29210;SDS011;16250;49.932;10.980;2023-07-30T08:16:05;2.63;;;2.40;;
29210;SDS011;16250;49.932;10.980;2023-07-30T08:18:30;2.80;;;2.60;;
29210;SDS011;16250;49.932;10.980;2023-07-30T08:20:56;6.00;;;2.58;;
29210;SDS011;16250;49.932;10.980;2023-07-30T08:23:21;2.75;;;2.47;;
29210;SDS011;16250;49.932;10.980;2023-07-30T08:25:47;2.90;;;2.58;;
29210;SDS011;16250;49.932;10.980;2023-07-30T08:28:12;2.95;;;2.65;;
29210;SDS011;16250;49.932;10.980;2023-07-30T08:30:37;3.80;;;2.78;;
29210;SDS011;16250;49.932;10.980;2023-07-30T08:33:03;3.20;;;2.90;;
29210;SDS011;16250;49.932;10.980;2023-07-30T08:35:28;2.78;;;2.58;;
29210;SDS011;16250;49.932;10.980;2023-07-30T08:37:54;3.13;;;2.83;;
29210;SDS011;16250;49.932;10.980;2023-07-30T08:40:21;3.70;;;2.60;;
29210;SDS011;16250;49.932;10.980;2023-07-30T08:42:48;3.22;;;2.50;;
29210;SDS011;16250;49.932;10.980;2023-07-30T08:45:15;2.40;;;2.20;;
29210;SDS011;16250;49.932;10.980;2023-07-30T08:47:41;2.88;;;2.35;;
29210;SDS011;16250;49.932;10.980;2023-07-30T08:50:06;2.10;;;1.85;;
29210;SDS011;16250;49.932;10.980;2023-07-30T08:52:32;2.60;;;2.00;;
29210;SDS011;16250;49.932;10.980;2023-07-30T08:54:57;2.40;;;2.00;;
29210;SDS011;16250;49.932;10.980;2023-07-30T08:57:26;3.25;;;2.03;;
29210;SDS011;16250;49.932;10.980;2023-07-30T09:00:10;3.17;;;2.17;;
29210;SDS011;16250;49.932;10.980;2023-07-30T09:02:53;2.67;;;1.90;;
29210;SDS011;16250;49.932;10.980;2023-07-30T09:05:20;2.25;;;1.67;;
29210;SDS011;16250;49.932;10.980;2023-07-30T09:07:46;1.92;;;1.80;;
29210;SDS011;16250;49.932;10.980;2023-07-30T09:10:12;3.25;;;1.50;;
29210;SDS011;16250;49.932;10.980;2023-07-30T09:12:37;1.95;;;1.60;;
29210;SDS011;16250;49.932;10.980;2023-07-30T09:15:03;1.73;;;1.60;;
29210;SDS011;16250;49.932;10.980;2023-07-30T09:17:35;1.65;;;1.55;;
29210;SDS011;16250;49.932;10.980;2023-07-30T09:20:01;1.85;;;1.65;;
29210;SDS011;16250;49.932;10.980;2023-07-30T09:22:29;1.83;;;1.50;;
29210;SDS011;16250;49.932;10.980;2023-07-30T09:24:55;1.70;;;1.52;;
29210;SDS011;16250;49.932;10.980;2023-07-30T09:27:22;1.98;;;1.77;;
29210;SDS011;16250;49.932;10.980;2023-07-30T09:29:54;2.88;;;1.73;;
29210;SDS011;16250;49.932;10.980;2023-07-30T09:32:29;1.95;;;1.83;;
29210;SDS011;16250;49.932;10.980;2023-07-30T09:35:03;3.33;;;2.22;;
29210;SDS011;16250;49.932;10.980;2023-07-30T09:37:36;2.45;;;1.90;;
29210;SDS011;16250;49.932;10.980;2023-07-30T09:40:10;2.50;;;2.03;;
29210;SDS011;16250;49.932;10.980;2023-07-30T09:42:44;2.70;;;1.80;;
29210;SDS011;16250;49.932;10.980;2023-07-30T09:45:17;2.03;;;1.83;;
29210;SDS011;16250;49.932;10.980;2023-07-30T09:47:48;2.47;;;2.00;;
29210;SDS011;16250;49.932;10.980;2023-07-30T09:50:17;3.22;;;1.92;;
29210;SDS011;16250;49.932;10.980;2023-07-30T09:52:43;3.08;;;2.10;;
29210;SDS011;16250;49.932;10.980;2023-07-30T09:55:09;2.10;;;1.75;;
29210;SDS011;16250;49.932;10.980;2023-07-30T09:57:35;3.50;;;1.85;;
29210;SDS011;16250;49.932;10.980;2023-07-30T10:00:01;2.83;;;2.10;;
29210;SDS011;16250;49.932;10.980;2023-07-30T10:02:29;2.10;;;1.90;;
29210;SDS011;16250;49.932;10.980;2023-07-30T10:04:58;1.80;;;1.70;;
29210;SDS011;16250;49.932;10.980;2023-07-30T10:07:24;2.63;;;2.03;;
29210;SDS011;16250;49.932;10.980;2023-07-30T10:09:55;2.97;;;1.90;;
29210;SDS011;16250;49.932;10.980;2023-07-30T10:12:24;3.15;;;1.67;;
29210;SDS011;16250;49.932;10.980;2023-07-30T10:14:52;2.58;;;1.88;;
29210;SDS011;16250;49.932;10.980;2023-07-30T10:17:18;1.90;;;1.40;;
29210;SDS011;16250;49.932;10.980;2023-07-30T10:19:46;1.85;;;1.65;;
29210;SDS011;16250;49.932;10.980;2023-07-30T10:24:37;2.10;;;1.90;;
29210;SDS011;16250;49.932;10.980;2023-07-30T10:27:07;2.13;;;1.92;;
29210;SDS011;16250;49.932;10.980;2023-07-30T10:29:35;3.05;;;2.15;;
29210;SDS011;16250;49.932;10.980;2023-07-30T10:32:01;3.13;;;1.88;;
29210;SDS011;16250;49.932;10.980;2023-07-30T10:34:43;3.53;;;1.98;;
29210;SDS011;16250;49.932;10.980;2023-07-30T10:37:09;2.20;;;2.00;;
29210;SDS011;16250;49.932;10.980;2023-07-30T10:39:34;3.67;;;1.92;;
29210;SDS011;16250;49.932;10.980;2023-07-30T10:42:00;3.20;;;1.75;;
29210;SDS011;16250;49.932;10.980;2023-07-30T10:44:26;2.10;;;1.63;;
29210;SDS011;16250;49.932;10.980;2023-07-30T10:46:59;4.68;;;1.70;;
29210;SDS011;16250;49.932;10.980;2023-07-30T10:49:25;2.80;;;1.60;;
29210;SDS011;16250;49.932;10.980;2023-07-30T10:51:51;2.85;;;1.55;;
29210;SDS011;16250;49.932;10.980;2023-07-30T10:54:18;1.85;;;1.60;;
29210;SDS011;16250;49.932;10.980;2023-07-30T10:56:44;1.60;;;1.50;;
29210;SDS011;16250;49.932;10.980;2023-07-30T10:59:10;1.77;;;1.60;;
29210;SDS011;16250;49.932;10.980;2023-07-30T11:01:36;1.58;;;1.38;;
29210;SDS011;16250;49.932;10.980;2023-07-30T11:04:05;1.75;;;1.52;;
29210;SDS011;16250;49.932;10.980;2023-07-30T11:06:32;2.05;;;1.67;;
29210;SDS011;16250;49.932;10.980;2023-07-30T11:08:57;2.38;;;1.50;;
29210;SDS011;16250;49.932;10.980;2023-07-30T11:11:22;2.08;;;1.50;;
29210;SDS011;16250;49.932;10.980;2023-07-30T11:13:49;1.85;;;1.40;;
29210;SDS011;16250;49.932;10.980;2023-07-30T11:16:15;2.50;;;1.90;;
29210;SDS011;16250;49.932;10.980;2023-07-30T11:18:41;2.75;;;1.60;;
29210;SDS011;16250;49.932;10.980;2023-07-30T11:23:34;6.50;;;1.50;;
29210;SDS011;16250;49.932;10.980;2023-07-30T11:26:04;1.95;;;1.85;;
29210;SDS011;16250;49.932;10.980;2023-07-30T11:28:37;2.35;;;1.60;;
29210;SDS011;16250;49.932;10.980;2023-07-30T11:31:07;3.88;;;1.67;;
29210;SDS011;16250;49.932;10.980;2023-07-30T11:33:35;2.20;;;1.38;;
29210;SDS011;16250;49.932;10.980;2023-07-30T11:36:02;1.80;;;1.40;;
29210;SDS011;16250;49.932;10.980;2023-07-30T11:38:28;2.30;;;1.60;;
29210;SDS011;16250;49.932;10.980;2023-07-30T11:40:54;1.60;;;1.50;;
29210;SDS011;16250;49.932;10.980;2023-07-30T11:43:20;1.70;;;1.60;;
29210;SDS011;16250;49.932;10.980;2023-07-30T11:45:47;1.98;;;1.70;;
29210;SDS011;16250;49.932;10.980;2023-07-30T11:48:12;2.28;;;1.48;;
29210;SDS011;16250;49.932;10.980;2023-07-30T11:50:48;2.25;;;1.67;;
29210;SDS011;16250;49.932;10.980;2023-07-30T11:53:17;2.50;;;1.80;;
29210;SDS011;16250;49.932;10.980;2023-07-30T11:55:43;1.58;;;1.42;;
29210;SDS011;16250;49.932;10.980;2023-07-30T11:58:10;2.10;;;1.83;;
29210;SDS011;16250;49.932;10.980;2023-07-30T12:00:36;1.65;;;1.50;;
29210;SDS011;16250;49.932;10.980;2023-07-30T12:03:03;1.50;;;1.40;;
29210;SDS011;16250;49.932;10.980;2023-07-30T12:05:35;2.08;;;1.88;;
29210;SDS011;16250;49.932;10.980;2023-07-30T12:08:02;2.85;;;1.67;;
29210;SDS011;16250;49.932;10.980;2023-07-30T12:10:45;2.72;;;2.00;;
29210;SDS011;16250;49.932;10.980;2023-07-30T12:13:20;2.78;;;1.73;;
29210;SDS011;16250;49.932;10.980;2023-07-30T12:15:52;1.85;;;1.65;;
29210;SDS011;16250;49.932;10.980;2023-07-30T12:18:20;1.75;;;1.60;;
29210;SDS011;16250;49.932;10.980;2023-07-30T12:20:46;1.77;;;1.65;;
29210;SDS011;16250;49.932;10.980;2023-07-30T12:23:12;1.70;;;1.60;;
29210;SDS011;16250;49.932;10.980;2023-07-30T12:25:37;5.80;;;2.15;;
29210;SDS011;16250;49.932;10.980;2023-07-30T12:28:03;2.95;;;2.22;;
29210;SDS011;16250;49.932;10.980;2023-07-30T12:30:29;3.35;;;2.28;;
29210;SDS011;16250;49.932;10.980;2023-07-30T12:32:54;3.13;;;2.20;;
29210;SDS011;16250;49.932;10.980;2023-07-30T12:35:20;2.60;;;2.10;;
29210;SDS011;16250;49.932;10.980;2023-07-30T12:37:45;2.55;;;2.20;;
29210;SDS011;16250;49.932;10.980;2023-07-30T12:40:11;2.60;;;2.35;;
29210;SDS011;16250;49.932;10.980;2023-07-30T12:42:36;2.70;;;2.05;;
29210;SDS011;16250;49.932;10.980;2023-07-30T12:45:02;4.00;;;2.63;;
29210;SDS011;16250;49.932;10.980;2023-07-30T12:47:27;2.10;;;1.90;;
29210;SDS011;16250;49.932;10.980;2023-07-30T12:49:53;2.50;;;2.08;;
29210;SDS011;16250;49.932;10.980;2023-07-30T12:52:18;2.67;;;2.10;;
29210;SDS011;16250;49.932;10.980;2023-07-30T12:54:44;4.47;;;2.20;;
29210;SDS011;16250;49.932;10.980;2023-07-30T12:57:11;18.27;;;3.05;;
29210;SDS011;16250;49.932;10.980;2023-07-30T12:59:36;7.95;;;3.97;;
29210;SDS011;16250;49.932;10.980;2023-07-30T13:02:01;7.72;;;3.55;;
29210;SDS011;16250;49.932;10.980;2023-07-30T13:04:27;5.00;;;3.40;;
29210;SDS011;16250;49.932;10.980;2023-07-30T13:06:53;7.55;;;3.20;;
29210;SDS011;16250;49.932;10.980;2023-07-30T13:09:18;5.63;;;3.67;;
29210;SDS011;16250;49.932;10.980;2023-07-30T13:11:44;4.82;;;3.33;;
29210;SDS011;16250;49.932;10.980;2023-07-30T13:14:09;3.75;;;2.80;;
29210;SDS011;16250;49.932;10.980;2023-07-30T13:16:35;4.45;;;2.60;;
29210;SDS011;16250;49.932;10.980;2023-07-30T13:19:00;3.58;;;2.90;;
29210;SDS011;16250;49.932;10.980;2023-07-30T13:21:25;3.58;;;1.80;;
29210;SDS011;16250;49.932;10.980;2023-07-30T13:23:51;4.45;;;1.90;;
29210;SDS011;16250;49.932;10.980;2023-07-30T13:26:17;2.40;;;1.60;;
29210;SDS011;16250;49.932;10.980;2023-07-30T13:28:43;2.35;;;1.65;;
29210;SDS011;16250;49.932;10.980;2023-07-30T13:31:08;2.20;;;1.80;;
29210;SDS011;16250;49.932;10.980;2023-07-30T13:33:34;3.42;;;1.80;;
29210;SDS011;16250;49.932;10.980;2023-07-30T13:35:59;2.30;;;1.92;;
29210;SDS011;16250;49.932;10.980;2023-07-30T13:38:25;5.63;;;1.50;;
29210;SDS011;16250;49.932;10.980;2023-07-30T13:40:52;1.85;;;1.60;;
29210;SDS011;16250;49.932;10.980;2023-07-30T13:43:17;2.55;;;1.45;;
29210;SDS011;16250;49.932;10.980;2023-07-30T13:45:42;2.35;;;1.60;;
29210;SDS011;16250;49.932;10.980;2023-07-30T13:48:08;2.20;;;1.60;;
29210;SDS011;16250;49.932;10.980;2023-07-30T13:50:34;1.88;;;1.55;;
29210;SDS011;16250;49.932;10.980;2023-07-30T13:52:59;3.97;;;1.50;;
29210;SDS011;16250;49.932;10.980;2023-07-30T13:55:25;2.85;;;1.50;;
29210;SDS011;16250;49.932;10.980;2023-07-30T13:57:50;2.83;;;1.60;;
29210;SDS011;16250;49.932;10.980;2023-07-30T14:00:15;2.60;;;1.30;;
29210;SDS011;16250;49.932;10.980;2023-07-30T14:02:41;2.10;;;1.50;;
29210;SDS011;16250;49.932;10.980;2023-07-30T14:05:07;3.63;;;1.42;;
29210;SDS011;16250;49.932;10.980;2023-07-30T14:07:34;2.13;;;1.38;;
29210;SDS011;16250;49.932;10.980;2023-07-30T14:10:00;2.88;;;1.35;;
29210;SDS011;16250;49.932;10.980;2023-07-30T14:12:26;1.67;;;1.20;;
29210;SDS011;16250;49.932;10.980;2023-07-30T14:14:51;2.15;;;1.38;;
29210;SDS011;16250;49.932;10.980;2023-07-30T14:17:16;3.05;;;1.42;;
29210;SDS011;16250;49.932;10.980;2023-07-30T14:19:42;2.55;;;1.30;;
29210;SDS011;16250;49.932;10.980;2023-07-30T14:22:07;1.38;;;1.27;;
29210;SDS011;16250;49.932;10.980;2023-07-30T14:24:33;2.97;;;1.25;;
29210;SDS011;16250;49.932;10.980;2023-07-30T14:26:59;2.45;;;1.30;;
29210;SDS011;16250;49.932;10.980;2023-07-30T14:29:24;2.95;;;1.42;;
29210;SDS011;16250;49.932;10.980;2023-07-30T14:31:50;2.20;;;1.30;;